Flight Track Log - Related Links

Times and Time Zones

All times are in EDT time to prevent confusion due to time zone crossing. See the N618JB flight status page for this flight to view local times or setup timezone preferences in your user account.

Time Position Orientation Groundspeed Altitude Reporting Facility
EDT Latitude Longitude Course Direction KTS MPH feet Rate Location/Type
Thu 12:22:05 PM 40.7500 -74.1167 180° South 223 257 2,800  Level New York TRACON
Thu 12:22:59 PM 40.7833 -74.1833 303° West 260 299 5,500 3,211 Climbing New York TRACON
Thu 12:23:59 PM 40.7500 -74.2333 229° Southwest 240 276 8,900 3,100 Climbing New York TRACON
Thu 12:24:59 PM 40.6833 -74.2333 180° South 267 307 11,700 1,952 Climbing New York TRACON
Thu 12:26:05 PM 40.5833 -74.2167 173° South 337 388 13,000 1,677 Climbing New York TRACON
Thu 12:27:00 PM 40.0368 -74.2333 180° South  Level FlightAware Approximate
Thu 12:27:40 PM 40.4353 -74.1850 171° South 369 425 16,200  Level New York Center
Thu 12:28:42 PM 40.3233 -74.1656 172° South 374 430 18,400 1,944 Climbing New York Center
Thu 12:30:39 PM 40.1461 -74.3050 211° Southwest 346 398 22,000 1,695 Climbing Washington Center
Thu 12:31:39 PM 40.0575 -74.3908 217° Southwest 373 429 23,400 1,000 Climbing Washington Center
Thu 12:32:39 PM 39.9686 -74.4761 216° Southwest 394 453 24,000 300 Climbing Washington Center
Thu 12:33:39 PM 39.8800 -74.5614 216° Southwest 406 467 24,000  Level Washington Center
Thu 12:34:39 PM 39.8075 -74.6328 217° Southwest 406 467 24,000 50 Level Washington Center
Thu 12:35:39 PM 39.7061 -74.7283 216° Southwest 406 467 24,100 750 Climbing Washington Center
Thu 12:36:39 PM 39.6153 -74.8158 217° Southwest 406 467 25,500 1,250 Climbing Washington Center
Thu 12:37:39 PM 39.5200 -74.9056 216° Southwest 417 480 26,600 1,200 Climbing Washington Center
Thu 12:38:39 PM 39.4225 -74.9978 216° Southwest 432 497 27,900 1,200 Climbing Washington Center
Thu 12:39:39 PM 39.3250 -75.0872 215° Southwest 432 497 29,000 1,050 Climbing Washington Center
Thu 12:40:39 PM 39.2083 -75.1522 203° Southwest 444 511 30,000 500 Climbing Washington Center
Thu 12:41:39 PM 39.0878 -75.2039 198° South 449 517 30,000  Level Washington Center
Thu 12:42:39 PM 38.9628 -75.2553 198° South 461 531 30,000  Level Washington Center
Thu 12:43:39 PM 38.8400 -75.3064 198° South 466 536 30,000 300 Level Washington Center
Thu 12:44:39 PM 38.7169 -75.3575 198° South 466 536 30,600 1,050 Climbing Washington Center
Thu 12:45:39 PM 38.5942 -75.4083 198° South 466 536 32,100 1,500 Climbing Washington Center
Thu 12:46:39 PM 38.4753 -75.4617 199° South 461 531 33,600 950 Climbing Washington Center
Thu 12:47:39 PM 38.3567 -75.5122 198° South 461 531 34,000 200 Climbing Washington Center
Thu 12:48:39 PM 38.2397 -75.5758 203° Southwest 461 531 34,000  Level Washington Center
Thu 12:49:39 PM 38.1253 -75.6444 205° Southwest 461 531 34,000  Level Washington Center
Thu 12:50:39 PM 38.0189 -75.7208 210° Southwest 455 524 34,000  Level Washington Center
Thu 12:51:39 PM 37.9039 -75.7917 206° Southwest 455 524 34,000  Level Washington Center
Thu 12:52:39 PM 37.7869 -75.8572 204° Southwest 455 524 34,000  Level Washington Center
Thu 12:53:39 PM 37.6783 -75.9303 208° Southwest 455 524 34,000  Level Washington Center
Thu 12:54:39 PM 37.5656 -76.0006 206° Southwest 455 524 34,000  Level Washington Center
Thu 12:55:39 PM 37.4528 -76.0706 206° Southwest 455 524 34,000  Level Washington Center
Thu 12:56:39 PM 37.3397 -76.1378 205° Southwest 455 524 34,000  Level Washington Center
Thu 12:57:39 PM 37.2228 -76.1994 203° Southwest 450 518 34,000  Level Washington Center
Thu 12:58:39 PM 37.1117 -76.2717 207° Southwest 450 518 34,000  Level Washington Center
Thu 12:59:39 PM 37.0008 -76.3383 206° Southwest 445 512 34,000  Level Washington Center
Thu 01:00:39 PM 36.8917 -76.4125 209° Southwest 445 512 34,000 50 Level Washington Center
Thu 01:01:39 PM 36.8367 -76.5469 243° Southwest 422 486 34,100 50 Climbing Washington Center
Thu 01:02:39 PM 36.8125 -76.6894 258° West 411 473 34,100 -450 Level Washington Center
Thu 01:03:39 PM 36.7819 -76.8314 255° West 422 486 33,200 -1,050 Descending Washington Center
Thu 01:04:39 PM 36.6889 -76.9258 219° Southwest 422 486 32,000 -600 Descending Washington Center
Thu 01:05:39 PM 36.5675 -76.9756 198° South 412 474 32,000  Level Washington Center
Thu 01:06:39 PM 36.4522 -77.0250 199° South 429 494 32,000 -50 Level Washington Center
Thu 01:07:39 PM 36.3325 -77.0772 199° South 449 517 31,900 -50 Descending Washington Center
Thu 01:08:39 PM 36.2131 -77.1239 197° South 449 517 31,900 50 Level Washington Center
Thu 01:09:39 PM 36.0997 -77.1731 199° South 442 509 32,000 50 Climbing Washington Center
Thu 01:10:39 PM 35.9803 -77.2219 198° South 447 514 32,000  Level Washington Center
Thu 01:11:39 PM 35.8583 -77.2708 198° South 452 520 32,000 50 Level Washington Center
Thu 01:12:39 PM 35.7389 -77.3194 198° South 457 526 32,100  Climbing Washington Center
Thu 01:13:39 PM 35.6169 -77.3703 199° South 462 532 32,000 -50 Descending Washington Center
Thu 01:14:39 PM 35.4975 -77.4186 198° South 468 539 32,000  Level Washington Center
Thu 01:15:38 PM 35.3756 -77.4644 197° South 468 539 32,000  Level Washington Center
Thu 01:16:39 PM 35.2539 -77.5150 199° South 468 539 32,000  Level Washington Center
Thu 01:17:39 PM 35.1300 -77.5653 198° South 468 539 32,000  Level Washington Center
Thu 01:18:39 PM 35.0103 -77.6106 197° South 468 539 32,000  Level Washington Center
Thu 01:19:39 PM 34.8883 -77.6608 199° South 468 539 32,000  Level Washington Center
Thu 01:20:39 PM 34.7686 -77.7133 200° South 468 539 32,000  Level Washington Center
Thu 01:21:39 PM 34.6444 -77.7606 197° South 468 539 32,000  Level Washington Center
Thu 01:22:39 PM 34.5247 -77.8078 198° South 468 539 32,000  Level Washington Center
Thu 01:23:39 PM 34.4008 -77.8572 198° South 468 539 32,000  Level Washington Center
Thu 01:24:39 PM 34.2747 -77.8967 194° South 468 539 32,000  Level Washington Center
Thu 01:27:04 PM 33.9644 -77.9925 194° South 475 547 32,000  Level Jacksonville Center
Thu 01:28:04 PM 33.8403 -78.0194 190° South 470 541 32,000  Level Jacksonville Center
Thu 01:29:04 PM 33.7167 -78.0589 195° South 470 541 32,000  Level Jacksonville Center
Thu 01:30:04 PM 33.5764 -78.0989 193° South 470 541 32,000  Level Jacksonville Center
Thu 01:31:04 PM 33.4506 -78.1356 194° South 470 541 32,000  Level Jacksonville Center
Thu 01:32:04 PM 33.3264 -78.1672 192° South 465 535 32,000  Level Jacksonville Center
Thu 01:33:04 PM 33.2006 -78.2061 194° South 465 535 32,000  Level Jacksonville Center
Thu 01:34:04 PM 33.0744 -78.2400 193° South 465 535 32,000  Level Jacksonville Center
Thu 01:35:04 PM 32.9506 -78.2736 193° South 465 535 32,000  Level Jacksonville Center
Thu 01:36:04 PM 32.8244 -78.3072 193° South 465 535 32,000  Level Jacksonville Center
Thu 01:37:04 PM 32.7008 -78.3481 196° South 465 535 32,000  Level Jacksonville Center
Thu 01:38:04 PM 32.5744 -78.3792 192° South 465 535 32,000  Level Jacksonville Center
Thu 01:39:04 PM 32.4506 -78.4147 194° South 465 535 32,000  Level Jacksonville Center
Thu 01:40:04 PM 32.3431 -78.4469 194° South 460 529 32,000  Level Jacksonville Center
Thu 01:41:04 PM 32.2153 -78.4875 195° South 465 535 32,000  Level Jacksonville Center
Thu 01:42:04 PM 32.0931 -78.5206 193° South 470 541 32,000  Level Jacksonville Center
Thu 01:44:00 PM 31.8777 -78.5782 193° South  Level FlightAware Approximate
Thu 01:45:04 PM 31.7233 -78.6308 193° South 464 534 32,000  Level Jacksonville Center
Thu 01:46:04 PM 31.6011 -78.6631 193° South 464 534 32,000  Level Jacksonville Center
Thu 01:47:04 PM 31.4772 -78.7006 194° South 464 534 32,000  Level Jacksonville Center
Thu 01:48:04 PM 31.3553 -78.7375 195° South 459 528 32,000  Level Jacksonville Center
Thu 01:49:04 PM 31.2353 -78.7697 193° South 459 528 32,000  Level Jacksonville Center
Thu 01:50:04 PM 31.1111 -78.8067 194° South 459 528 32,000  Level Jacksonville Center
Thu 01:51:04 PM 30.9744 -78.8417 192° South 452 520 32,000  Level Jacksonville Center
Thu 01:52:04 PM 30.8567 -78.8756 194° South 456 525 32,000  Level Jacksonville Center
Thu 01:53:04 PM 30.7344 -78.9097 194° South 454 522 32,000  Level Jacksonville Center
Thu 01:54:04 PM 30.6103 -78.9464 194° South 452 520 32,000  Level Jacksonville Center
Thu 01:54:31 PM 30.5650 -78.9581 193° South 450 518 32,000  Level Miami Center
Thu 01:55:31 PM 30.4436 -78.9917 193° South 445 512 32,000  Level Miami Center
Thu 01:56:31 PM 30.3200 -79.0422 199° South 458 527 32,000  Level Miami Center
Thu 01:57:31 PM 30.2003 -79.0903 199° South 458 527 32,000 -700 Level Miami Center
Thu 01:58:31 PM 30.0828 -79.1428 201° Southwest 458 527 30,600 -1,050 Descending Miami Center
Thu 01:59:31 PM 29.9586 -79.2119 206° Southwest 458 527 29,900 -1,000 Descending Miami Center
Thu 02:00:31 PM 29.8389 -79.2619 200° South 458 527 28,600 -950 Descending Miami Center
Thu 02:01:31 PM 29.7194 -79.3072 198° South 458 527 28,000 -300 Descending Miami Center
Thu 02:02:31 PM 29.6058 -79.3594 202° Southwest 453 521 28,000  Level Miami Center
Thu 02:03:31 PM 29.4903 -79.4117 201° Southwest 453 521 28,000  Level Miami Center
Thu 02:04:31 PM 29.3847 -79.4733 207° Southwest 426 490 28,000  Level Miami Center
Thu 02:05:31 PM 29.2631 -79.5158 197° South 450 518 28,000 -550 Level Miami Center
Thu 02:06:31 PM 29.1594 -79.5869 211° Southwest 434 499 26,900 -1,350 Descending Miami Center
Thu 02:07:31 PM 29.0867 -79.6800 228° Southwest 422 486 25,300 -1,650 Descending Miami Center
Thu 02:08:31 PM 29.0367 -79.7881 242° Southwest 390 449 23,600 -1,700 Descending Miami Center
Thu 02:09:31 PM 28.9989 -79.8961 248° West 385 443 21,900 -1,700 Descending Miami Center
Thu 02:10:31 PM 28.9631 -80.0067 250° West 378 435 20,200 -1,750 Descending Miami Center
Thu 02:11:31 PM 28.9272 -80.1169 250° West 378 435 18,400 -1,650 Descending Miami Center
Thu 02:12:31 PM 28.8956 -80.2228 251° West 366 421 16,900 -1,361 Descending Miami Center
Thu 02:14:45 PM 28.8333 -80.4500 253° West 327 376 14,000 -1,077 Descending Orlando TRACON
Thu 02:15:46 PM 28.8167 -80.5500 259° West 329 379 13,400 -1,140 Descending Orlando TRACON
Thu 02:16:46 PM 28.8000 -80.6500 259° West 314 361 11,700 -1,700 Descending Orlando TRACON
Thu 02:17:46 PM 28.7833 -80.7500 259° West 317 365 10,000 -850 Descending Orlando TRACON
Thu 02:18:46 PM 28.7667 -80.8500 259° West 283 326 10,000  Level Orlando TRACON
Thu 02:19:46 PM 28.7667 -80.9333 270° West 276 318 10,000 -1,100 Level Orlando TRACON
Thu 02:20:46 PM 28.7500 -81.0167 257° West 277 319 7,800 -1,983 Descending Orlando TRACON
Thu 02:21:47 PM 28.7333 -81.1000 257° West 269 310 6,000 -893 Descending Orlando TRACON
Thu 02:22:47 PM 28.7333 -81.1667 270° West 219 252 6,000 -100 Level Orlando TRACON
Thu 02:23:47 PM 28.7500 -81.2333 286° West 199 229 5,800 -850 Descending Orlando TRACON
Thu 02:24:47 PM 28.7167 -81.2833 233° Southwest 178 205 4,300 -900 Descending Orlando TRACON
Thu 02:25:47 PM 28.6667 -81.3000 196° South 184 212 4,000 -350 Descending Orlando TRACON
Thu 02:26:47 PM 28.6167 -81.3000 180° South 186 214 3,600 -744 Descending Orlando TRACON
Thu 02:27:48 PM 28.5667 -81.3000 180° South 190 219 2,500 -992 Descending Orlando TRACON
Thu 02:28:48 PM 28.5167 -81.3000 180° South 179 206 1,600 -850 Descending Orlando TRACON
Thu 02:29:48 PM 28.4667 -81.3000 180° South 149 171 800 -800 Descending Orlando TRACON

Login

Don't have an account? Register now (free) for customized features, flight alerts, and more!